createdAt,value
2023-03-26T00:00:04.797Z,809.3846
2023-03-26T00:01:06.431Z,809.1539
2023-03-26T00:02:08.255Z,809.6923
2023-03-26T00:03:09.703Z,809.6154
2023-03-26T00:04:11.468Z,811.8461
2023-03-26T00:05:13.102Z,812.8461
2023-03-26T00:06:14.664Z,813.6154
2023-03-26T00:07:16.403Z,812.7692
2023-03-26T00:08:18.068Z,811.7692
2023-03-26T00:09:19.578Z,811.6154
2023-03-26T00:10:21.365Z,811.2308
2023-03-26T00:11:22.937Z,810.5385
2023-03-26T00:12:24.584Z,809.3846
2023-03-26T00:13:26.231Z,808.9231
2023-03-26T00:14:27.862Z,806.5385
2023-03-26T00:15:29.484Z,803.6923
2023-03-26T00:16:31.197Z,803.0000
2023-03-26T00:17:32.830Z,801.0000
2023-03-26T00:18:34.504Z,802.0000
2023-03-26T00:19:36.090Z,804.0000
2023-03-26T00:20:37.740Z,803.3077
2023-03-26T00:21:39.394Z,804.2308
2023-03-26T00:22:41.109Z,806.0769
2023-03-26T00:23:42.671Z,807.1539
2023-03-26T00:24:44.339Z,808.0769
2023-03-26T00:25:46.771Z,807.0000
2023-03-26T00:26:47.648Z,808.4615
2023-03-26T00:27:49.294Z,808.8461
2023-03-26T00:28:50.953Z,807.4615
2023-03-26T00:29:52.563Z,805.9231
2023-03-26T00:30:54.279Z,804.9231
2023-03-26T00:31:55.871Z,804.8461
2023-03-26T00:32:57.570Z,804.9231
2023-03-26T00:33:59.161Z,804.3077
2023-03-26T00:35:00.845Z,804.3077
2023-03-26T00:36:04.397Z,804.3846
2023-03-26T00:37:04.125Z,806.4615
2023-03-26T00:38:05.776Z,808.6154
2023-03-26T00:39:07.417Z,810.2308
2023-03-26T00:40:09.040Z,809.8461
2023-03-26T00:41:10.712Z,809.9231
2023-03-26T00:42:12.342Z,813.0769
2023-03-26T00:43:14.019Z,814.7692
2023-03-26T00:44:15.643Z,817.7692
2023-03-26T00:45:17.304Z,816.3077
2023-03-26T00:46:18.998Z,812.0769
2023-03-26T00:47:20.761Z,811.4615
2023-03-26T00:48:28.846Z,811.1539
2023-03-26T00:49:23.890Z,810.1539
2023-03-26T00:50:25.529Z,809.0000
2023-03-26T00:51:27.218Z,809.1539
2023-03-26T00:52:28.833Z,809.1539
2023-03-26T00:53:30.667Z,809.8461
2023-03-26T00:54:32.142Z,809.1539
2023-03-26T00:55:33.805Z,809.2308
2023-03-26T00:56:35.476Z,808.7692
2023-03-26T00:57:37.185Z,806.9231
2023-03-26T00:58:38.751Z,808.6923
2023-03-26T00:59:40.403Z,811.2308
2023-03-26T01:00:42.034Z,810.4615
2023-03-26T01:01:43.726Z,806.3846
2023-03-26T01:02:45.435Z,803.0000
2023-03-26T01:04:04.830Z,802.2308
2023-03-26T01:04:48.759Z,801.8461
2023-03-26T01:05:50.303Z,804.9231
2023-03-26T01:06:51.916Z,806.6154
2023-03-26T01:07:53.590Z,807.9231
2023-03-26T01:08:55.251Z,809.4615
2023-03-26T01:09:56.871Z,808.6923
2023-03-26T01:10:58.514Z,808.0769
2023-03-26T01:12:00.181Z,810.0000
2023-03-26T01:13:01.812Z,806.6154
2023-03-26T01:14:03.502Z,805.0769
2023-03-26T01:15:05.124Z,804.1539
2023-03-26T01:16:06.822Z,804.0000
2023-03-26T01:17:08.405Z,806.3077
2023-03-26T01:18:10.092Z,806.3077
2023-03-26T01:19:11.721Z,805.0000
2023-03-26T01:20:13.376Z,803.9231
2023-03-26T01:21:15.000Z,807.6154
2023-03-26T01:22:16.687Z,811.0000
2023-03-26T01:23:18.326Z,810.7692
2023-03-26T01:24:20.001Z,812.6923
2023-03-26T01:25:21.604Z,813.6154
2023-03-26T01:26:23.261Z,813.8461
2023-03-26T01:27:24.902Z,812.5385
2023-03-26T01:28:26.573Z,810.1539
2023-03-26T01:29:28.242Z,809.3846
2023-03-26T01:30:29.869Z,806.6923
2023-03-26T01:31:31.483Z,805.8461
2023-03-26T01:32:33.321Z,805.7692
2023-03-26T01:33:34.855Z,807.8461
2023-03-26T01:34:36.502Z,810.6154
2023-03-26T01:35:38.118Z,812.6154
2023-03-26T01:36:39.765Z,816.5385
2023-03-26T01:37:41.381Z,817.6154
2023-03-26T01:38:43.060Z,817.5385
2023-03-26T01:39:44.713Z,816.9231
2023-03-26T01:40:46.351Z,815.8461
2023-03-26T01:41:47.986Z,814.3846
2023-03-26T01:42:49.661Z,812.4615
2023-03-26T01:43:51.289Z,813.0000
2023-03-26T01:44:52.978Z,811.6923
2023-03-26T01:45:54.738Z,812.7692
2023-03-26T01:46:56.339Z,814.6923
2023-03-26T01:47:57.905Z,818.0000
2023-03-26T01:48:59.532Z,816.6154
2023-03-26T01:50:01.207Z,815.1539
2023-03-26T01:51:02.838Z,815.9231
2023-03-26T01:52:04.470Z,816.9231
2023-03-26T01:53:06.143Z,815.9231
2023-03-26T01:54:07.840Z,814.4615
2023-03-26T01:55:09.533Z,813.8461
2023-03-26T01:56:11.172Z,813.3077
2023-03-26T01:57:12.822Z,812.5385
2023-03-26T01:58:14.439Z,812.5385
2023-03-26T01:59:16.117Z,812.1539
2023-03-26T02:00:17.777Z,813.2308
2023-03-26T02:01:19.481Z,813.3077
2023-03-26T02:02:21.173Z,812.3077
2023-03-26T02:03:22.854Z,814.0769
2023-03-26T02:04:24.362Z,814.3077
2023-03-26T02:05:26.063Z,814.0000
2023-03-26T02:06:27.652Z,814.3846
2023-03-26T02:07:29.328Z,814.3846
2023-03-26T02:08:30.963Z,816.0769
2023-03-26T02:09:32.614Z,815.9231
2023-03-26T02:10:34.270Z,816.8461
2023-03-26T02:11:36.224Z,816.4615
2023-03-26T02:12:37.544Z,817.4615
2023-03-26T02:13:39.217Z,820.0769
2023-03-26T02:14:40.862Z,819.6923
2023-03-26T02:15:42.541Z,819.8461
2023-03-26T02:16:44.166Z,818.7692
2023-03-26T02:17:45.827Z,816.7692
2023-03-26T02:18:47.498Z,817.4615
2023-03-26T02:19:49.125Z,816.5385
2023-03-26T02:20:50.773Z,814.3077
2023-03-26T02:21:52.408Z,815.3077
2023-03-26T02:22:54.043Z,815.6923
2023-03-26T02:23:55.715Z,815.4615
2023-03-26T02:24:57.349Z,815.4615
2023-03-26T02:25:59.043Z,817.3846
2023-03-26T02:27:00.642Z,819.7692
2023-03-26T02:28:02.304Z,817.6154
2023-03-26T02:29:03.941Z,816.6154
2023-03-26T02:30:05.606Z,815.7692
2023-03-26T02:31:07.274Z,816.3077
2023-03-26T02:32:08.909Z,816.7692
2023-03-26T02:33:10.591Z,817.4615
2023-03-26T02:34:12.220Z,820.3077
2023-03-26T02:35:13.894Z,819.8461
2023-03-26T02:36:15.601Z,818.3077
2023-03-26T02:37:17.145Z,815.8461
2023-03-26T02:38:18.775Z,813.3846
2023-03-26T02:39:20.445Z,810.6154
2023-03-26T02:40:22.096Z,811.1539
2023-03-26T02:41:23.749Z,811.6154
2023-03-26T02:42:25.385Z,812.0769
2023-03-26T02:43:27.019Z,809.7692
2023-03-26T02:44:28.680Z,809.7692
2023-03-26T02:45:30.315Z,810.0769
2023-03-26T02:46:32.054Z,812.0000
2023-03-26T02:47:33.692Z,814.3846
2023-03-26T02:48:35.271Z,815.1539
2023-03-26T02:49:36.899Z,816.3846
2023-03-26T02:50:38.578Z,817.0769
2023-03-26T02:51:40.210Z,818.7692
2023-03-26T02:52:41.871Z,818.8461
2023-03-26T02:53:43.496Z,818.3077
2023-03-26T02:54:45.154Z,816.0769
2023-03-26T02:55:46.792Z,814.8461
2023-03-26T02:56:48.505Z,816.4615
2023-03-26T02:57:50.096Z,815.5385
2023-03-26T02:58:51.757Z,815.6923
2023-03-26T02:59:53.391Z,816.4615
2023-03-26T03:00:55.143Z,815.3077
2023-03-26T03:01:56.759Z,813.7692
2023-03-26T03:02:58.443Z,814.6923
2023-03-26T03:03:59.984Z,814.7692
2023-03-26T03:05:01.765Z,814.4615
2023-03-26T03:06:03.269Z,812.3077
2023-03-26T03:07:05.069Z,812.6154
2023-03-26T03:08:06.643Z,811.0000
2023-03-26T03:09:08.284Z,809.6154
2023-03-26T03:10:09.973Z,809.9231
2023-03-26T03:11:11.592Z,811.0000
2023-03-26T03:12:13.299Z,810.3846
2023-03-26T03:13:14.941Z,810.4615
2023-03-26T03:14:16.511Z,808.5385
2023-03-26T03:15:18.247Z,808.7692
2023-03-26T03:16:19.921Z,809.3077
2023-03-26T03:17:21.559Z,809.6923
2023-03-26T03:18:23.194Z,810.8461
2023-03-26T03:19:24.745Z,811.8461
2023-03-26T03:20:26.363Z,811.6154
2023-03-26T03:21:28.037Z,811.2308
2023-03-26T03:22:29.689Z,810.8461
2023-03-26T03:23:31.319Z,811.2308
2023-03-26T03:24:32.961Z,813.8461
2023-03-26T03:25:34.636Z,811.2308
2023-03-26T03:26:36.253Z,810.6923
2023-03-26T03:27:37.949Z,808.9231
2023-03-26T03:28:39.566Z,808.6154
2023-03-26T03:29:41.212Z,811.3077
2023-03-26T03:30:42.897Z,813.3077
2023-03-26T03:31:44.520Z,816.0769
2023-03-26T03:32:46.238Z,815.5385
2023-03-26T03:33:47.819Z,814.0769
2023-03-26T03:34:49.438Z,813.7692
2023-03-26T03:35:51.113Z,811.1539
2023-03-26T03:36:52.726Z,810.0769
2023-03-26T03:37:54.415Z,807.6154
2023-03-26T03:38:56.041Z,804.3077
2023-03-26T03:39:57.694Z,801.6154
2023-03-26T03:40:59.324Z,802.4615
2023-03-26T03:42:00.998Z,806.6154
2023-03-26T03:43:02.665Z,810.3077
2023-03-26T03:44:04.300Z,812.9231
2023-03-26T03:45:05.928Z,811.9231
2023-03-26T03:46:07.639Z,811.1539
2023-03-26T03:47:09.211Z,811.0769
2023-03-26T03:48:10.942Z,812.2308
2023-03-26T03:49:12.526Z,814.3846
2023-03-26T03:50:14.200Z,815.7692
2023-03-26T03:51:15.841Z,817.9231
2023-03-26T03:52:17.487Z,817.3846
2023-03-26T03:53:19.144Z,813.6154
2023-03-26T03:54:20.786Z,810.2308
2023-03-26T03:55:22.409Z,810.4615
2023-03-26T03:56:24.101Z,811.5385
2023-03-26T03:57:25.728Z,812.3077
2023-03-26T03:58:27.424Z,812.8461
2023-03-26T03:59:29.004Z,814.3077
2023-03-26T04:00:30.696Z,817.5385
2023-03-26T04:01:32.304Z,817.7692
2023-03-26T04:02:34.076Z,820.1539
2023-03-26T04:03:35.778Z,820.6923
2023-03-26T04:04:37.331Z,819.1539
2023-03-26T04:05:38.920Z,817.8461
2023-03-26T04:06:40.579Z,819.0769
2023-03-26T04:07:42.206Z,822.4615
2023-03-26T04:08:43.995Z,822.2308
2023-03-26T04:09:45.504Z,820.0000
2023-03-26T04:10:47.163Z,818.0000
2023-03-26T04:11:48.802Z,818.8461
2023-03-26T04:12:50.461Z,819.0769
2023-03-26T04:13:52.113Z,816.3846
2023-03-26T04:14:53.756Z,816.0000
2023-03-26T04:15:55.656Z,816.5385
2023-03-26T04:16:57.061Z,817.2308
2023-03-26T04:17:58.760Z,815.3077
2023-03-26T04:19:00.371Z,814.7692
2023-03-26T04:20:01.983Z,813.2308
2023-03-26T04:21:03.638Z,810.3077
2023-03-26T04:22:05.288Z,812.4615
2023-03-26T04:23:06.948Z,816.0769
2023-03-26T04:24:08.597Z,816.2308
2023-03-26T04:25:10.259Z,817.4615
2023-03-26T04:26:11.867Z,820.0000
2023-03-26T04:27:13.527Z,820.4615
2023-03-26T04:28:15.162Z,820.6923
2023-03-26T04:29:16.844Z,821.3846
2023-03-26T04:30:18.456Z,822.7692
2023-03-26T04:31:20.163Z,822.1539
2023-03-26T04:32:21.773Z,821.5385
2023-03-26T04:33:23.438Z,820.9231
2023-03-26T04:34:25.127Z,823.8461
2023-03-26T04:35:26.763Z,826.4615
2023-03-26T04:36:28.390Z,827.6923
2023-03-26T04:37:30.020Z,829.0769
2023-03-26T04:38:31.645Z,830.4615
2023-03-26T04:39:33.352Z,829.6154
2023-03-26T04:40:34.969Z,831.3077
2023-03-26T04:41:36.630Z,826.9231
2023-03-26T04:42:38.253Z,825.4615
2023-03-26T04:43:39.929Z,824.0000
2023-03-26T04:44:41.638Z,823.8461
2023-03-26T04:45:43.209Z,824.8461
2023-03-26T04:46:44.853Z,825.5385
2023-03-26T04:47:46.802Z,825.1539
2023-03-26T04:48:48.141Z,823.3846
2023-03-26T04:49:49.839Z,823.5385
2023-03-26T04:50:51.448Z,821.4615
2023-03-26T04:51:53.095Z,823.0000
2023-03-26T04:52:54.750Z,823.3846
2023-03-26T04:53:56.418Z,820.3846
2023-03-26T04:54:58.060Z,817.0000
2023-03-26T04:55:59.699Z,819.0769
2023-03-26T04:57:01.343Z,818.6923
2023-03-26T04:58:02.986Z,818.4615
2023-03-26T04:59:04.628Z,816.6154
2023-03-26T05:00:06.317Z,814.9231
2023-03-26T05:01:10.318Z,817.1539
2023-03-26T05:02:09.620Z,816.6154
2023-03-26T05:03:11.218Z,817.0000
2023-03-26T05:04:12.893Z,816.6154
2023-03-26T05:05:14.543Z,817.4615
2023-03-26T05:06:16.195Z,819.0769
2023-03-26T05:07:17.819Z,816.3077
2023-03-26T05:08:19.492Z,816.5385
2023-03-26T05:09:21.126Z,816.5385
2023-03-26T05:10:22.869Z,819.7692
2023-03-26T05:11:24.430Z,822.3077
2023-03-26T05:12:26.100Z,824.5385
2023-03-26T05:13:27.713Z,823.0000
2023-03-26T05:14:29.390Z,824.0769
2023-03-26T05:15:31.053Z,821.6154
2023-03-26T05:16:32.706Z,821.1539
2023-03-26T05:17:34.382Z,820.4615
2023-03-26T05:18:36.015Z,818.9231
2023-03-26T05:19:37.624Z,818.2308
2023-03-26T05:20:39.328Z,817.3846
2023-03-26T05:21:40.933Z,817.2308
2023-03-26T05:22:42.592Z,818.3077
2023-03-26T05:23:44.233Z,820.0000
2023-03-26T05:24:45.911Z,820.6923
2023-03-26T05:25:47.567Z,821.8461
2023-03-26T05:26:49.205Z,821.3846
2023-03-26T05:27:50.820Z,821.1539
2023-03-26T05:28:52.733Z,821.0769
2023-03-26T05:29:54.109Z,820.1539
2023-03-26T05:30:55.984Z,817.0000
2023-03-26T05:31:57.432Z,814.7692
2023-03-26T05:32:59.125Z,814.3077
2023-03-26T05:34:00.861Z,813.3846
2023-03-26T05:35:02.352Z,812.2308
2023-03-26T05:36:04.081Z,811.6923
2023-03-26T05:37:05.667Z,810.2308
2023-03-26T05:38:07.317Z,811.3077
2023-03-26T05:39:08.947Z,811.3077
2023-03-26T05:40:10.640Z,810.6154
2023-03-26T05:41:12.285Z,811.8461
2023-03-26T05:42:13.922Z,813.5385
2023-03-26T05:43:15.549Z,813.8461
2023-03-26T05:44:17.234Z,812.6154
2023-03-26T05:45:18.853Z,809.3846
2023-03-26T05:46:20.653Z,804.9231
2023-03-26T05:47:22.143Z,804.3846
2023-03-26T05:48:23.828Z,807.7692
2023-03-26T05:49:25.460Z,811.4615
2023-03-26T05:50:27.129Z,812.3077
2023-03-26T05:51:28.775Z,812.3846
2023-03-26T05:52:30.430Z,814.6923
2023-03-26T05:53:32.066Z,813.5385
2023-03-26T05:54:33.740Z,811.5385
2023-03-26T05:55:35.365Z,809.3077
2023-03-26T05:56:37.175Z,807.8461
2023-03-26T05:57:38.734Z,809.9231
2023-03-26T05:58:40.413Z,810.4615
2023-03-26T05:59:42.029Z,809.3846
2023-03-26T06:00:43.705Z,807.7692
2023-03-26T06:01:45.362Z,808.9231
2023-03-26T06:02:47.091Z,808.7692
2023-03-26T06:03:48.707Z,810.0769
2023-03-26T06:04:50.349Z,809.6923
2023-03-26T06:05:51.933Z,807.7692
2023-03-26T06:06:53.634Z,806.2308
2023-03-26T06:07:55.224Z,807.2308
2023-03-26T06:09:01.910Z,807.0769
2023-03-26T06:09:58.533Z,808.0000
2023-03-26T06:11:00.221Z,810.1539
2023-03-26T06:12:01.874Z,812.0000
2023-03-26T06:13:03.513Z,813.6923
2023-03-26T06:14:05.126Z,815.3077
2023-03-26T06:15:06.807Z,814.1539
2023-03-26T06:16:08.459Z,816.1539
2023-03-26T06:17:10.180Z,818.4615
2023-03-26T06:18:11.791Z,818.0769
2023-03-26T06:19:13.519Z,796.3846
2023-03-26T06:20:15.037Z,670.3077
2023-03-26T06:21:16.704Z,614.3846
2023-03-26T06:22:18.358Z,608.3846
2023-03-26T06:23:19.996Z,603.8461
2023-03-26T06:24:21.630Z,605.6923
2023-03-26T06:25:23.295Z,604.6923
2023-03-26T06:26:24.936Z,590.9231
2023-03-26T06:27:26.625Z,580.7692
2023-03-26T06:28:28.244Z,588.3077
2023-03-26T06:29:29.918Z,593.0769
2023-03-26T06:30:31.551Z,589.3846
2023-03-26T06:31:33.257Z,603.7692
2023-03-26T06:32:34.913Z,600.3077
2023-03-26T06:33:36.517Z,621.5385
2023-03-26T06:34:38.146Z,649.2308
2023-03-26T06:35:39.855Z,668.0769
2023-03-26T06:36:41.465Z,669.0769
2023-03-26T06:37:43.146Z,663.7692
2023-03-26T06:38:44.770Z,662.7692
2023-03-26T06:39:46.429Z,664.0769
2023-03-26T06:40:48.069Z,663.0769
2023-03-26T06:41:49.730Z,662.8461
2023-03-26T06:43:08.643Z,663.6154
2023-03-26T06:43:53.048Z,665.2308
2023-03-26T06:44:54.669Z,675.8461
2023-03-26T06:45:56.357Z,869.1539
2023-03-26T06:46:58.046Z,996.0769
2023-03-26T06:47:59.734Z,886.2308
2023-03-26T06:49:01.283Z,871.7692
2023-03-26T06:50:02.977Z,816.7692
2023-03-26T06:51:04.608Z,784.6923
2023-03-26T06:52:06.274Z,792.2308
2023-03-26T06:53:07.913Z,791.2308
2023-03-26T06:54:09.563Z,788.5385
2023-03-26T06:55:11.220Z,778.9231
2023-03-26T06:56:12.873Z,768.4615
2023-03-26T06:57:14.527Z,757.7692
2023-03-26T06:58:16.210Z,754.8461
2023-03-26T06:59:17.846Z,756.0769
2023-03-26T07:00:19.485Z,763.9231
2023-03-26T07:01:21.165Z,767.7692
2023-03-26T07:02:22.819Z,770.9231
2023-03-26T07:03:24.433Z,773.3077
2023-03-26T07:04:26.110Z,781.0000
2023-03-26T07:05:27.781Z,786.4615
2023-03-26T07:06:29.391Z,794.9231
2023-03-26T07:07:31.047Z,805.1539
2023-03-26T07:08:32.720Z,814.0000
2023-03-26T07:09:34.360Z,818.5385
2023-03-26T07:10:35.987Z,827.2308
2023-03-26T07:11:37.656Z,837.8461
2023-03-26T07:12:39.292Z,849.9231
2023-03-26T07:13:40.978Z,877.0000
2023-03-26T07:14:42.601Z,891.0769
2023-03-26T07:15:44.282Z,903.0000
2023-03-26T07:16:45.903Z,912.0769
2023-03-26T07:17:47.577Z,924.0000
2023-03-26T07:18:49.452Z,941.9231
2023-03-26T07:19:50.874Z,979.2308
2023-03-26T07:20:52.605Z,1001.7692
2023-03-26T07:21:54.177Z,1011.7692
2023-03-26T07:22:55.801Z,1020.6923
2023-03-26T07:23:57.493Z,1039.0000
2023-03-26T07:24:59.111Z,1067.6923
2023-03-26T07:26:00.786Z,1072.9231
2023-03-26T07:27:02.429Z,1078.2307
2023-03-26T07:28:04.088Z,1085.1538
2023-03-26T07:29:05.728Z,1095.5385
2023-03-26T07:30:07.396Z,1157.2307
2023-03-26T07:31:09.015Z,1225.6923
2023-03-26T07:32:10.680Z,1303.3077
2023-03-26T07:33:12.314Z,1346.0769
2023-03-26T07:34:14.011Z,1363.1538
2023-03-26T07:35:15.629Z,1368.6154
2023-03-26T07:36:17.304Z,1371.9231
2023-03-26T07:37:18.925Z,1375.6923
2023-03-26T07:38:20.592Z,1375.4615
2023-03-26T07:39:22.250Z,1364.2307
2023-03-26T07:40:23.900Z,1350.1538
2023-03-26T07:41:25.537Z,1343.6154
2023-03-26T07:42:27.223Z,1343.3846
2023-03-26T07:43:28.852Z,1344.8462
2023-03-26T07:44:30.525Z,1347.9231
2023-03-26T07:45:32.165Z,1351.6154
2023-03-26T07:46:33.800Z,1354.0769
2023-03-26T07:47:35.478Z,1360.4615
2023-03-26T07:48:37.104Z,1368.2307
2023-03-26T07:49:38.758Z,1369.0769
2023-03-26T07:50:40.410Z,1378.3846
2023-03-26T07:51:42.048Z,1383.9231
2023-03-26T07:52:43.708Z,1388.3846
2023-03-26T07:53:45.341Z,1435.0000
2023-03-26T07:54:47.048Z,1468.4615
2023-03-26T07:55:48.663Z,1495.0000
2023-03-26T07:56:50.386Z,1515.2307
2023-03-26T07:57:51.936Z,1534.6154
2023-03-26T07:58:53.615Z,1544.9231
2023-03-26T07:59:55.266Z,1556.0769
2023-03-26T08:00:57.125Z,1556.4615
2023-03-26T08:01:58.543Z,1590.3846
2023-03-26T08:03:00.286Z,1618.7693
2023-03-26T08:04:23.424Z,1560.8462
2023-03-26T08:05:03.597Z,1506.2307
2023-03-26T08:06:05.134Z,1490.9231
2023-03-26T08:07:06.803Z,1481.8462
2023-03-26T08:08:08.443Z,1474.6154
2023-03-26T08:09:10.109Z,1466.4615
2023-03-26T08:10:12.016Z,1461.9231
2023-03-26T08:11:13.422Z,1467.9231
2023-03-26T08:12:15.039Z,1476.7693
2023-03-26T08:13:16.732Z,1484.1538
2023-03-26T08:14:18.336Z,1488.3846
2023-03-26T08:15:20.037Z,1493.7693
2023-03-26T08:16:21.666Z,1506.0769
2023-03-26T08:17:23.346Z,1505.7693
2023-03-26T08:18:24.942Z,1589.8462
2023-03-26T08:19:26.612Z,1556.7693
2023-03-26T08:20:28.339Z,1536.4615
2023-03-26T08:21:29.918Z,1521.1538
2023-03-26T08:22:31.591Z,1507.0769
2023-03-26T08:23:33.220Z,1499.8462
2023-03-26T08:24:34.893Z,1492.6154
2023-03-26T08:25:38.001Z,1490.0000
2023-03-26T08:26:38.146Z,1483.0000
2023-03-26T08:27:39.809Z,1484.8462
2023-03-26T08:28:41.471Z,1510.3846
2023-03-26T08:29:43.133Z,1512.1538
2023-03-26T08:30:44.812Z,1496.8462
2023-03-26T08:31:46.411Z,1482.4615
2023-03-26T08:32:48.132Z,1473.3077
2023-03-26T08:33:49.731Z,1466.7693
2023-03-26T08:34:51.402Z,1461.6154
2023-03-26T08:35:53.132Z,1457.0769
2023-03-26T08:36:54.721Z,1457.3077
2023-03-26T08:37:56.332Z,1460.1538
2023-03-26T08:38:58.001Z,1461.2307
2023-03-26T08:39:59.643Z,1460.6923
2023-03-26T08:41:01.332Z,1460.7693
2023-03-26T08:42:02.931Z,1460.6923
2023-03-26T08:43:04.602Z,1461.5385
2023-03-26T08:44:06.260Z,1460.4615
2023-03-26T08:45:07.927Z,1457.6923
2023-03-26T08:46:09.597Z,1456.0000
2023-03-26T08:47:11.204Z,1455.1538
2023-03-26T08:48:12.844Z,1453.2307
2023-03-26T08:49:14.501Z,1454.9231
2023-03-26T08:50:16.238Z,1453.7693
2023-03-26T08:51:17.836Z,1450.2307
2023-03-26T08:52:19.446Z,1448.2307
2023-03-26T08:53:21.116Z,1446.0769
2023-03-26T08:54:22.750Z,1443.8462
2023-03-26T08:55:24.423Z,1445.2307
2023-03-26T08:56:26.098Z,1448.0000
2023-03-26T08:57:27.716Z,1448.0000
2023-03-26T08:58:29.352Z,1445.8462
2023-03-26T08:59:31.029Z,1448.4615
2023-03-26T09:00:32.663Z,1446.6154
2023-03-26T09:01:34.393Z,1445.9231
2023-03-26T09:02:36.030Z,1443.3846
2023-03-26T09:03:37.625Z,1442.1538
2023-03-26T09:04:39.272Z,1444.0769
2023-03-26T09:05:40.958Z,1443.2307
2023-03-26T09:06:42.646Z,1441.7693
2023-03-26T09:07:44.293Z,1435.3846
2023-03-26T09:08:54.212Z,1434.6154
2023-03-26T09:09:47.505Z,1435.3846
2023-03-26T09:10:49.154Z,1432.3846
2023-03-26T09:11:50.823Z,1429.5385
2023-03-26T09:12:52.440Z,1424.3077
2023-03-26T09:13:54.132Z,1419.0000
2023-03-26T09:14:55.757Z,1412.6154
2023-03-26T09:15:57.511Z,1409.3077
2023-03-26T09:16:59.080Z,1407.2307
2023-03-26T09:18:00.762Z,1405.3846
2023-03-26T09:19:02.345Z,1402.3077
2023-03-26T09:20:04.026Z,1400.0769
2023-03-26T09:21:05.673Z,1397.9231
2023-03-26T09:22:07.380Z,1396.3846
2023-03-26T09:23:08.960Z,1395.1538
2023-03-26T09:24:10.624Z,1396.1538
2023-03-26T09:25:12.276Z,1393.0000
2023-03-26T09:26:13.929Z,1391.3077
2023-03-26T09:27:15.589Z,1390.9231
2023-03-26T09:28:17.225Z,1388.9231
2023-03-26T09:29:18.855Z,1388.0000
2023-03-26T09:30:20.505Z,1383.3846
2023-03-26T09:31:22.202Z,1380.7693
2023-03-26T09:32:23.942Z,1380.0000
2023-03-26T09:33:25.477Z,1380.6923
2023-03-26T09:34:27.144Z,1380.6154
2023-03-26T09:35:28.764Z,1378.4615
2023-03-26T09:36:30.472Z,1376.0769
2023-03-26T09:37:32.083Z,1377.8462
2023-03-26T09:38:33.741Z,1377.2307
2023-03-26T09:39:35.363Z,1371.6923
2023-03-26T09:40:37.035Z,1369.6154
2023-03-26T09:41:38.658Z,1372.6154
2023-03-26T09:42:40.359Z,1400.0000
2023-03-26T09:43:41.996Z,1192.4615
2023-03-26T09:44:43.628Z,1149.4615
2023-03-26T09:45:45.275Z,1371.1538
2023-03-26T09:46:46.936Z,1386.0000
2023-03-26T09:47:48.648Z,1373.9231
2023-03-26T09:48:50.237Z,1350.6154
2023-03-26T09:49:51.865Z,1333.4615
2023-03-26T09:50:53.719Z,1322.6923
2023-03-26T09:51:55.146Z,1319.0769
2023-03-26T09:52:56.845Z,1320.5385
2023-03-26T09:53:58.447Z,1323.3846
2023-03-26T09:55:00.162Z,1322.6154
2023-03-26T09:56:01.772Z,1324.8462
2023-03-26T09:57:03.465Z,1324.2307
2023-03-26T09:58:05.134Z,1329.3846
2023-03-26T09:59:06.854Z,1332.4615
2023-03-26T10:00:08.423Z,1334.3077
2023-03-26T10:01:10.144Z,1337.8462
2023-03-26T10:02:11.717Z,1345.3846
2023-03-26T10:03:13.465Z,1100.2307
2023-03-26T10:04:15.024Z,773.3077
2023-03-26T10:05:16.690Z,684.5385
2023-03-26T10:06:18.313Z,675.0000
2023-03-26T10:07:19.984Z,674.0769
2023-03-26T10:08:21.641Z,678.5385
2023-03-26T10:09:23.290Z,677.9231
2023-03-26T10:10:24.906Z,680.1539
2023-03-26T10:11:26.588Z,680.5385
2023-03-26T10:12:28.222Z,679.3077
2023-03-26T10:13:29.928Z,680.9231
2023-03-26T10:14:31.532Z,682.4615
2023-03-26T10:15:33.198Z,683.4615
2023-03-26T10:16:34.880Z,688.2308
2023-03-26T10:17:37.179Z,693.0769
2023-03-26T10:18:38.166Z,696.3846
2023-03-26T10:19:39.808Z,698.1539
2023-03-26T10:20:41.434Z,698.9231
2023-03-26T10:21:43.096Z,698.1539
2023-03-26T10:22:44.742Z,699.1539
2023-03-26T10:23:46.425Z,702.0769
2023-03-26T10:24:48.044Z,702.4615
2023-03-26T10:25:49.745Z,704.3846
2023-03-26T10:27:08.589Z,703.0769
2023-03-26T10:27:53.014Z,703.6923
2023-03-26T10:28:54.677Z,706.2308
2023-03-26T10:29:56.325Z,707.0769
2023-03-26T10:30:58.118Z,706.6923
2023-03-26T10:31:59.616Z,709.5385
2023-03-26T10:33:01.324Z,710.6154
2023-03-26T10:34:02.959Z,715.3846
2023-03-26T10:35:04.555Z,720.0769
2023-03-26T10:36:06.251Z,723.0000
2023-03-26T10:37:07.851Z,724.6923
2023-03-26T10:38:09.527Z,725.0769
2023-03-26T10:39:11.183Z,724.4615
2023-03-26T10:40:12.830Z,724.5385
2023-03-26T10:41:14.491Z,725.3846
2023-03-26T10:42:16.123Z,727.7692
2023-03-26T10:43:17.763Z,729.0000
2023-03-26T10:44:19.508Z,729.5385
2023-03-26T10:45:21.096Z,731.3077
2023-03-26T10:46:22.772Z,736.3846
2023-03-26T10:47:24.432Z,739.2308
2023-03-26T10:48:26.054Z,743.7692
2023-03-26T10:49:27.750Z,747.7692
2023-03-26T10:50:29.362Z,752.3077
2023-03-26T10:51:30.972Z,756.7692
2023-03-26T10:52:32.670Z,759.5385
2023-03-26T10:53:34.295Z,760.9231
2023-03-26T10:54:35.999Z,760.9231
2023-03-26T10:55:37.596Z,764.3077
2023-03-26T10:56:39.290Z,766.1539
2023-03-26T10:57:40.896Z,767.7692
2023-03-26T10:58:48.590Z,769.2308
2023-03-26T10:59:44.247Z,775.3077
2023-03-26T11:00:45.892Z,779.2308
2023-03-26T11:01:47.524Z,780.3846
2023-03-26T11:02:49.225Z,782.0000
2023-03-26T11:03:50.827Z,784.3846
2023-03-26T11:04:52.517Z,785.2308
2023-03-26T11:05:54.191Z,786.0000
2023-03-26T11:06:55.800Z,786.9231
2023-03-26T11:07:57.430Z,795.4615
2023-03-26T11:08:59.136Z,812.9231
2023-03-26T11:10:00.746Z,830.5385
2023-03-26T11:11:02.395Z,884.1539
2023-03-26T11:12:26.223Z,945.0769
2023-03-26T11:13:05.691Z,987.4615
2023-03-26T11:14:07.339Z,1003.0769
2023-03-26T11:15:09.106Z,998.0769
2023-03-26T11:16:10.642Z,990.3846
2023-03-26T11:17:14.915Z,1004.2308
2023-03-26T11:18:13.963Z,1012.7692
2023-03-26T11:19:15.591Z,1020.7692
2023-03-26T11:20:17.292Z,1081.1538
2023-03-26T11:21:20.635Z,1006.0769
2023-03-26T11:22:20.527Z,991.0000
2023-03-26T11:23:22.211Z,995.0769
2023-03-26T11:24:23.812Z,993.6923
2023-03-26T11:25:25.532Z,987.3077
2023-03-26T11:26:27.137Z,978.2308
2023-03-26T11:27:28.792Z,974.6923
2023-03-26T11:28:30.446Z,985.4615
2023-03-26T11:29:33.494Z,1045.3077
2023-03-26T11:30:33.767Z,1092.5385
2023-03-26T11:31:35.433Z,1096.3846
2023-03-26T11:32:37.070Z,1092.2307
2023-03-26T11:33:38.689Z,1080.0769
2023-03-26T11:34:40.347Z,1064.4615
2023-03-26T11:35:42.013Z,1053.3077
2023-03-26T11:36:43.630Z,1046.2307
2023-03-26T11:37:45.308Z,1046.5385
2023-03-26T11:38:46.965Z,1046.3077
2023-03-26T11:39:48.584Z,1048.7693
2023-03-26T11:40:50.249Z,1058.0769
2023-03-26T11:41:51.901Z,1079.1538
2023-03-26T11:42:53.540Z,1116.9231
2023-03-26T11:43:55.217Z,1136.3846
2023-03-26T11:44:56.861Z,1135.0000
2023-03-26T11:45:58.550Z,1130.9231
2023-03-26T11:47:00.126Z,1125.6154
2023-03-26T11:48:01.854Z,1119.7693
2023-03-26T11:49:03.407Z,1117.9231
2023-03-26T11:50:05.143Z,1121.3077
2023-03-26T11:51:06.783Z,1126.2307
2023-03-26T11:52:08.393Z,1130.8462
2023-03-26T11:53:10.039Z,1132.4615
2023-03-26T11:54:11.714Z,1136.2307
2023-03-26T11:55:13.343Z,1140.0000
2023-03-26T11:56:15.174Z,1141.6923
2023-03-26T11:57:16.694Z,1143.8462